Time;durP1;ratioP1;P1;durP2;ratioP2;P2;SDS_P1;SDS_P2;PMS_P1;PMS_P2;Temp;Humidity;BMP_temperature;BMP_pressure;BME280_temperature;BME280_humidity;BME280_pressure;Samples;Min_cycle;Max_cycle;Signal;HPM_P1;HPM_P2
2022/01/13 00:00:17;;;;;;;40.30;20.15;;;;;;;2.22;55.65;103148.41;5031199;28;20056;-58
2022/01/13 00:02:44;;;;;;;36.05;18.42;;;;;;;2.23;55.35;103149.25;5034459;28;20053;-58
2022/01/13 00:05:12;;;;;;;31.40;17.77;;;;;;;2.22;55.45;103158.75;5034569;28;20053;-65
2022/01/13 00:07:38;;;;;;;32.22;16.38;;;;;;;2.25;55.27;103155.34;5034289;28;20052;-59
2022/01/13 00:10:06;;;;;;;30.65;15.50;;;;;;;2.32;55.35;103161.50;5034332;28;20406;-58
2022/01/13 00:12:38;;;;;;;30.00;15.52;;;;;;;2.35;54.94;103157.25;5029515;28;20061;-61
2022/01/13 00:18:02;;;;;;;24.35;13.50;;;;;;;2.32;55.22;103151.13;5033437;28;20143;-58
2022/01/13 00:25:39;;;;;;;23.88;13.93;;;;;;;2.27;55.21;103164.91;5021168;28;20045;-57
2022/01/13 00:28:15;;;;;;;23.55;13.63;;;;;;;2.26;55.22;103165.75;5034040;28;20095;-58
2022/01/13 00:30:42;;;;;;;27.58;14.98;;;;;;;2.23;55.29;103165.66;5020267;28;20042;-58
2022/01/13 00:33:11;;;;;;;23.63;13.93;;;;;;;2.26;55.33;103172.63;5033938;28;20628;-58
2022/01/13 00:35:37;;;;;;;23.45;13.93;;;;;;;2.21;55.48;103177.75;5034172;28;20046;-61
2022/01/13 00:38:04;;;;;;;23.75;13.60;;;;;;;2.23;55.36;103183.78;5033661;28;20049;-58
2022/01/13 00:40:31;;;;;;;24.63;13.45;;;;;;;2.21;55.49;103184.63;5034025;28;20052;-65
2022/01/13 00:42:57;;;;;;;27.58;13.52;;;;;;;2.22;55.40;103186.38;5034104;28;20045;-57
2022/01/13 00:45:24;;;;;;;24.45;13.77;;;;;;;2.22;55.32;103184.66;5033730;28;20052;-61
2022/01/13 00:47:51;;;;;;;24.40;13.88;;;;;;;2.28;55.27;103191.66;5029203;28;20045;-58
2022/01/13 00:50:18;;;;;;;27.98;15.23;;;;;;;2.29;55.51;103190.81;5032967;28;20045;-58
2022/01/13 00:52:45;;;;;;;27.70;16.48;;;;;;;2.31;55.52;103190.84;5033698;28;20053;-58
2022/01/13 00:55:17;;;;;;;33.53;16.20;;;;;;;2.32;55.42;103197.78;5033698;28;20049;-65
2022/01/13 00:57:43;;;;;;;31.13;16.85;;;;;;;2.26;55.84;103199.41;5033681;28;20466;-64
2022/01/13 01:00:11;;;;;;;30.30;16.48;;;;;;;2.24;55.90;103201.09;5033610;28;20091;-62
2022/01/13 01:02:37;;;;;;;29.15;15.95;;;;;;;2.23;55.94;103206.25;5031894;28;20045;-58
2022/01/13 01:05:04;;;;;;;27.98;14.90;;;;;;;2.13;56.30;103210.38;5033458;28;20494;-58
2022/01/13 01:07:32;;;;;;;30.73;15.70;;;;;;;2.06;56.34;103211.13;5033231;28;20049;-58
2022/01/13 01:10:02;;;;;;;30.92;16.83;;;;;;;2.02;56.22;103223.16;5033147;28;20049;-58
2022/01/13 01:12:31;;;;;;;33.72;16.58;;;;;;;2.02;56.18;103223.16;5033002;28;20552;-58
2022/01/13 01:14:58;;;;;;;32.05;16.52;;;;;;;2.00;56.18;103232.59;5032724;28;20050;-65
2022/01/13 01:17:25;;;;;;;34.40;16.88;;;;;;;2.04;55.95;103223.16;5033219;28;20054;-59
2022/01/13 01:19:52;;;;;;;29.85;18.02;;;;;;;2.03;56.00;103221.41;5030900;28;20594;-57
2022/01/13 01:25:03;;;;;;;29.33;16.13;;;;;;;2.03;56.31;103219.72;5033374;28;20433;-58
2022/01/13 01:27:45;;;;;;;24.52;16.20;;;;;;;2.03;56.17;103213.66;5021153;28;20394;-59
2022/01/13 01:30:24;;;;;;;26.90;15.93;;;;;;;2.07;56.43;103215.44;5032916;28;20041;-58
2022/01/13 01:32:51;;;;;;;29.27;15.30;;;;;;;2.08;56.51;103227.56;5032929;28;20053;-59
2022/01/13 01:35:19;;;;;;;29.33;17.42;;;;;;;2.08;56.61;103236.22;5032263;28;20056;-59
2022/01/13 01:37:45;;;;;;;30.25;15.65;;;;;;;2.07;56.61;103234.47;5032972;28;20045;-58
2022/01/13 01:40:13;;;;;;;29.13;16.48;;;;;;;2.07;56.71;103237.06;5032611;28;20128;-59
2022/01/13 01:42:41;;;;;;;27.92;15.82;;;;;;;2.09;56.61;103239.66;5033053;28;20042;-57
2022/01/13 01:45:09;;;;;;;30.45;15.70;;;;;;;2.07;56.74;103247.41;5032752;28;20060;-64
2022/01/13 01:47:36;;;;;;;29.40;15.13;;;;;;;2.08;56.82;103236.22;5032576;28;20440;-64
2022/01/13 01:50:12;;;;;;;25.35;14.38;;;;;;;2.09;56.63;103248.28;5032707;28;20045;-64
2022/01/13 01:52:39;;;;;;;26.40;15.13;;;;;;;2.06;56.67;103248.25;5027302;28;20041;-64
2022/01/13 01:55:07;;;;;;;26.05;16.02;;;;;;;2.05;56.92;103251.69;5032651;28;20128;-58
2022/01/13 01:57:34;;;;;;;27.02;15.00;;;;;;;2.05;56.90;103254.28;5032467;28;20482;-65
2022/01/13 02:00:02;;;;;;;25.98;15.30;;;;;;;2.00;57.03;103257.63;5032671;28;20115;-58
2022/01/13 02:02:29;;;;;;;24.70;14.35;;;;;;;1.95;56.94;103267.88;5032250;28;20111;-59
2022/01/13 02:04:57;;;;;;;28.02;14.50;;;;;;;1.91;57.17;103268.66;5032671;28;20041;-57
2022/01/13 02:07:24;;;;;;;24.85;14.55;;;;;;;1.85;57.01;103272.00;5031924;28;20076;-58
2022/01/13 02:09:53;;;;;;;25.80;14.85;;;;;;;1.78;56.95;103278.75;5031885;28;20057;-58
2022/01/13 02:15:48;;;;;;;27.73;13.63;;;;;;;1.66;56.90;103278.50;5020877;28;20053;-58
2022/01/13 02:18:15;;;;;;;22.50;14.00;;;;;;;1.70;56.49;103274.25;5032080;28;20046;-57
2022/01/13 02:20:48;;;;;;;24.40;13.07;;;;;;;1.63;56.28;103276.72;5032417;28;20555;-59
2022/01/13 02:23:32;;;;;;;28.23;14.07;;;;;;;1.61;56.08;103287.88;5031817;28;20052;-58
2022/01/13 02:25:59;;;;;;;24.38;13.45;;;;;;;1.57;56.07;103278.31;5025772;28;20512;-58
2022/01/13 02:28:27;;;;;;;24.05;13.93;;;;;;;1.55;55.99;103282.56;5027144;28;20050;-58
2022/01/13 02:30:53;;;;;;;24.05;13.18;;;;;;;1.54;56.02;103276.53;5032137;28;20493;-58
2022/01/13 02:33:20;;;;;;;29.77;14.55;;;;;;;1.53;56.06;103272.19;5031765;28;20103;-62
2022/01/13 02:35:47;;;;;;;27.05;14.80;;;;;;;1.54;55.93;103267.91;5032204;28;20045;-65
2022/01/13 02:38:13;;;;;;;27.70;14.68;;;;;;;1.52;56.28;103272.16;5031640;28;20057;-57
2022/01/13 02:40:40;;;;;;;25.27;15.63;;;;;;;1.48;56.29;103276.38;5032135;28;20110;-61
2022/01/13 02:43:08;;;;;;;29.95;14.48;;;;;;;1.45;56.29;103276.31;5030976;28;20041;-59
2022/01/13 02:45:38;;;;;;;25.02;14.50;;;;;;;1.42;56.15;103278.81;5031918;28;20981;-66
2022/01/13 02:50:52;;;;;;;26.17;14.45;;;;;;;1.36;56.26;103268.34;5031949;28;20406;-58
2022/01/13 02:53:18;;;;;;;26.73;14.65;;;;;;;1.33;56.17;103266.56;5031738;28;20075;-58
2022/01/13 02:55:45;;;;;;;24.55;13.82;;;;;;;1.25;56.25;103258.63;5031941;28;20050;-58
2022/01/13 02:58:16;;;;;;;29.50;15.02;;;;;;;1.24;56.31;103261.19;5031865;28;20099;-57
2022/01/13 03:00:43;;;;;;;26.80;14.32;;;;;;;1.26;56.19;103265.53;5027830;28;20053;-65
2022/01/13 03:03:12;;;;;;;24.58;14.80;;;;;;;1.27;56.29;103263.81;5031659;28;20111;-57
2022/01/13 03:05:39;;;;;;;26.92;15.52;;;;;;;1.28;56.30;103265.56;5031772;28;20512;-58
2022/01/13 03:08:07;;;;;;;28.00;15.07;;;;;;;1.32;56.10;103272.59;5017725;28;20045;-65
2022/01/13 03:10:34;;;;;;;27.27;15.20;;;;;;;1.35;56.63;103276.97;5031599;28;20466;-64
2022/01/13 03:13:01;;;;;;;28.27;15.35;;;;;;;1.36;56.70;103274.41;5031783;28;20049;-57
2022/01/13 03:15:28;;;;;;;29.10;15.00;;;;;;;1.44;56.58;103277.16;5031661;28;20053;-62
2022/01/13 03:17:55;;;;;;;27.15;14.32;;;;;;;1.49;56.83;103288.47;5020803;28;20490;-58
2022/01/13 03:20:22;;;;;;;23.55;14.48;;;;;;;1.55;56.78;103282.56;5030609;28;20053;-58
2022/01/13 03:22:48;;;;;;;28.30;14.02;;;;;;;1.46;56.98;103265.09;5031471;28;20049;-63
2022/01/13 03:25:20;;;;;;;24.45;14.60;;;;;;;1.42;57.06;103273.66;5031374;28;20477;-58
2022/01/13 03:28:04;;;;;;;24.95;14.32;;;;;;;1.37;57.23;103286.50;5031594;28;20045;-64
2022/01/13 03:30:32;;;;;;;27.13;14.82;;;;;;;1.30;57.36;103290.63;5031549;28;20064;-57
2022/01/13 03:33:00;;;;;;;30.42;15.48;;;;;;;1.26;57.22;103287.97;5031680;28;20072;-57
2022/01/13 03:35:27;;;;;;;26.90;16.08;;;;;;;1.17;57.32;103295.47;5030976;28;20042;-57
2022/01/13 03:37:54;;;;;;;24.40;15.32;;;;;;;1.09;57.33;103293.59;5032127;28;20068;-57
2022/01/13 03:40:20;;;;;;;30.77;15.63;;;;;;;1.10;57.15;103294.47;5034907;28;20037;-58
2022/01/13 03:42:48;;;;;;;25.20;15.07;;;;;;;1.09;57.19;103291.03;5035160;28;20520;-58
2022/01/13 03:45:14;;;;;;;33.58;15.75;;;;;;;1.10;56.87;103303.09;5034918;28;20111;-58
2022/01/13 03:47:41;;;;;;;26.23;15.52;;;;;;;1.08;56.97;103301.31;5026109;28;20041;-58
2022/01/13 03:50:08;;;;;;;24.13;14.70;;;;;;;1.09;56.84;103309.13;5034876;28;20478;-64
2022/01/13 03:52:57;;;;;;;23.45;14.93;;;;;;;1.08;56.93;103311.66;5034455;28;20087;-58
2022/01/13 03:55:36;;;;;;;27.35;14.25;;;;;;;1.10;56.93;103313.44;5023134;28;20496;-58
2022/01/13 03:58:40;;;;;;;25.55;15.30;;;;;;;1.08;56.93;103315.13;5034451;28;20045;-58
2022/01/13 04:01:43;;;;;;;23.55;14.05;;;;;;;1.08;56.87;103307.38;5034090;28;20045;-58
2022/01/13 04:04:10;;;;;;;22.77;13.23;;;;;;;1.03;57.05;103295.16;5027588;28;20050;-61
2022/01/13 04:06:42;;;;;;;24.33;14.23;;;;;;;0.96;57.18;103299.31;5031212;28;20041;-58
2022/01/13 04:09:29;;;;;;;21.38;13.43;;;;;;;0.92;57.16;103302.66;5029528;28;20053;-57
2022/01/13 04:11:56;;;;;;;31.92;15.07;;;;;;;0.87;57.19;103314.59;5030899;28;20042;-58
2022/01/13 04:17:15;;;;;;;37.08;14.77;;;;;;;0.80;56.92;103318.69;5030971;28;20077;-58
2022/01/13 04:19:42;;;;;;;28.08;15.27;;;;;;;0.77;56.96;103313.47;5031219;28;20049;-57
2022/01/13 04:22:10;;;;;;;33.08;14.32;;;;;;;0.75;56.93;103315.13;5031189;28;20045;-66
2022/01/13 04:24:39;;;;;;;33.33;15.52;;;;;;;0.73;56.83;103312.50;5030486;28;20045;-58
2022/01/13 04:27:08;;;;;;;32.17;14.70;;;;;;;0.71;56.94;103311.63;5030850;28;20049;-57
2022/01/13 04:29:39;;;;;;;26.23;14.45;;;;;;;0.67;56.90;103307.19;5030926;28;20616;-58
2022/01/13 04:32:07;;;;;;;33.05;15.52;;;;;;;0.67;56.75;103311.47;5030727;28;20100;-58
2022/01/13 04:34:34;;;;;;;28.75;13.63;;;;;;;0.65;56.68;103316.63;5031036;28;20057;-58
2022/01/13 04:37:01;;;;;;;31.63;15.07;;;;;;;0.65;56.70;103316.63;5030560;28;20053;-65
2022/01/13 04:39:29;;;;;;;33.97;14.13;;;;;;;0.63;56.83;103326.88;5030478;28;20037;-57
2022/01/13 04:41:56;;;;;;;34.45;14.88;;;;;;;0.59;56.89;103324.19;5025410;28;20516;-58
2022/01/13 04:44:25;;;;;;;25.42;13.63;;;;;;;0.59;56.92;103325.06;5030713;28;20976;-65
2022/01/13 04:46:54;;;;;;;27.63;13.80;;;;;;;0.58;56.90;103327.63;5030657;28;20049;-61
2022/01/13 04:49:22;;;;;;;31.60;14.05;;;;;;;0.57;57.11;103329.34;5029597;28;20045;-58
2022/01/13 04:51:50;;;;;;;31.52;16.05;;;;;;;0.60;56.92;103326.81;5030613;28;20048;-57
2022/01/13 04:54:17;;;;;;;28.17;14.23;;;;;;;0.62;57.13;103327.75;5030214;28;20049;-57
2022/01/13 04:57:04;;;;;;;27.85;15.27;;;;;;;0.61;57.13;103331.16;5029829;28;20049;-58
2022/01/13 04:59:31;;;;;;;24.08;13.02;;;;;;;0.63;57.24;103333.78;5030500;28;20045;-57
2022/01/13 05:02:00;;;;;;;30.40;13.85;;;;;;;0.62;57.05;103334.59;5030280;28;20045;-58
2022/01/13 05:04:27;;;;;;;29.33;13.57;;;;;;;0.60;57.37;103331.13;5030576;28;20405;-58
2022/01/13 05:06:53;;;;;;;31.05;13.73;;;;;;;0.57;57.30;103331.03;5030333;28;20045;-57
2022/01/13 05:09:20;;;;;;;27.33;13.82;;;;;;;0.57;57.44;103338.78;5029559;28;20053;-58
2022/01/13 05:11:47;;;;;;;23.65;14.10;;;;;;;0.55;57.57;103331.00;5030442;28;20049;-58
2022/01/13 05:14:13;;;;;;;30.63;13.75;;;;;;;0.52;57.57;103330.91;5029365;28;20053;-63
2022/01/13 05:17:08;;;;;;;30.70;14.15;;;;;;;0.51;57.71;103329.16;5029895;28;20053;-58
2022/01/13 05:19:46;;;;;;;23.33;13.43;;;;;;;0.51;57.47;103328.28;5030239;28;20112;-64
2022/01/13 05:24:40;;;;;;;21.65;13.38;;;;;;;0.53;57.43;103327.47;5030064;28;20056;-58
2022/01/13 05:27:08;;;;;;;28.88;12.85;;;;;;;0.51;57.47;103325.69;5029658;28;20053;-58
2022/01/13 05:29:34;;;;;;;25.27;13.05;;;;;;;0.50;57.54;103324.81;5030018;28;20041;-58
2022/01/13 05:32:01;;;;;;;26.80;13.75;;;;;;;0.45;57.54;103324.69;5017356;28;20049;-58
2022/01/13 05:34:28;;;;;;;27.70;14.88;;;;;;;0.41;57.63;103325.44;5029945;28;20084;-58
2022/01/13 05:37:11;;;;;;;37.03;14.90;;;;;;;0.45;57.42;103342.78;5029552;28;20099;-58
2022/01/13 05:39:38;;;;;;;26.90;13.25;;;;;;;0.49;57.33;103343.75;5029919;28;20044;-58
2022/01/13 05:42:05;;;;;;;33.70;14.50;;;;;;;0.45;57.60;103340.19;5029431;28;20315;-58
2022/01/13 05:44:38;;;;;;;28.30;13.88;;;;;;;0.43;57.57;103341.88;5029538;28;20041;-58
2022/01/13 05:47:07;;;;;;;26.83;13.07;;;;;;;0.40;57.64;103339.19;5022565;28;20049;-58
2022/01/13 05:49:34;;;;;;;22.65;13.20;;;;;;;0.36;57.58;103341.66;5029687;28;20045;-60
2022/01/13 05:52:02;;;;;;;23.48;12.85;;;;;;;0.35;57.47;103345.94;5029517;28;20057;-57
2022/01/13 05:54:28;;;;;;;27.20;13.43;;;;;;;0.32;57.49;103346.72;5029258;28;20045;-59
2022/01/13 05:56:55;;;;;;;26.10;13.48;;;;;;;0.34;57.46;103356.22;5029567;28;20383;-58
2022/01/13 05:59:23;;;;;;;28.67;14.02;;;;;;;0.32;57.59;103345.88;5029124;28;20110;-58
2022/01/13 06:01:50;;;;;;;26.42;13.95;;;;;;;0.26;57.70;103354.28;5029218;28;20064;-57
2022/01/13 06:04:17;;;;;;;28.08;13.27;;;;;;;0.23;57.67;103353.31;5026756;28;20045;-57
2022/01/13 06:06:44;;;;;;;25.08;13.43;;;;;;;0.24;57.59;103350.81;5029011;28;20046;-57
2022/01/13 06:09:17;;;;;;;24.05;13.13;;;;;;;0.31;57.21;103350.13;5028841;28;20409;-59
2022/01/13 06:12:00;;;;;;;24.53;13.87;;;;;;;0.34;57.14;103361.41;5028464;28;20050;-61
2022/01/13 06:14:32;;;;;;;23.13;12.20;;;;;;;0.29;57.29;103369.91;5028971;28;20053;-65
2022/01/13 06:16:58;;;;;;;22.08;12.60;;;;;;;0.29;57.44;103379.34;5028772;28;20042;-58
2022/01/13 06:19:25;;;;;;;20.55;11.63;;;;;;;0.34;57.43;103387.22;5024736;28;20111;-65
2022/01/13 06:21:52;;;;;;;19.35;12.23;;;;;;;0.34;57.37;103395.84;5028837;28;20041;-58
2022/01/13 06:24:19;;;;;;;21.65;12.05;;;;;;;0.32;57.55;103395.78;5026333;28;20072;-60
2022/01/13 06:26:45;;;;;;;21.58;12.32;;;;;;;0.28;57.49;103406.88;5024662;28;20080;-64
2022/01/13 06:29:12;;;;;;;26.90;11.95;;;;;;;0.26;57.77;103412.81;5028582;28;20074;-59
2022/01/13 06:31:38;;;;;;;23.45;12.20;;;;;;;0.27;57.64;103419.75;5028870;28;20107;-62
2022/01/13 06:34:05;;;;;;;27.90;11.80;;;;;;;0.30;57.59;103417.25;5012933;28;20049;-64
2022/01/13 06:36:32;;;;;;;24.80;13.30;;;;;;;0.26;57.76;103421.44;5022154;28;20498;-57
2022/01/13 06:38:59;;;;;;;26.90;14.25;;;;;;;0.33;57.48;103417.34;5020477;28;20037;-58
2022/01/13 06:41:26;;;;;;;25.65;15.50;;;;;;;0.32;57.69;103411.28;5028470;28;20045;-58
2022/01/13 06:43:52;;;;;;;31.25;16.60;;;;;;;0.30;57.67;103389.69;5028481;28;20045;-58
2022/01/13 06:46:20;;;;;;;30.00;16.33;;;;;;;0.32;57.70;103382.88;5028534;28;20217;-57
2022/01/13 06:48:47;;;;;;;32.13;17.40;;;;;;;0.64;57.44;103379.47;5025780;28;20429;-57
2022/01/13 06:51:14;;;;;;;72.20;28.05;;;;;;;0.50;57.50;103371.31;5027810;28;20045;-63
2022/01/13 06:53:41;;;;;;;95.13;35.80;;;;;;;0.47;57.61;103391.88;5028544;28;20045;-64
2022/01/13 06:56:07;;;;;;;70.10;28.60;;;;;;;0.42;57.78;103396.06;5028258;28;20037;-70
2022/01/13 06:58:34;;;;;;;64.30;25.95;;;;;;;0.40;57.86;103406.34;5028571;28;20049;-68
2022/01/13 07:01:00;;;;;;;52.65;21.75;;;;;;;0.37;58.00;103407.97;5028217;28;20045;-73
2022/01/13 07:03:27;;;;;;;54.50;22.92;;;;;;;0.42;58.01;103408.97;5027372;28;20042;-63
2022/01/13 07:05:54;;;;;;;73.35;26.80;;;;;;;0.36;58.03;103408.81;5014967;28;20046;-62
2022/01/13 07:08:21;;;;;;;106.88;35.63;;;;;;;0.36;58.01;103414.84;5013053;28;20449;-63
2022/01/13 07:10:48;;;;;;;121.97;38.65;;;;;;;0.36;57.81;103412.25;5016437;28;20505;-77
2022/01/13 07:13:14;;;;;;;131.75;40.78;;;;;;;0.40;57.62;103429.59;5012319;28;20057;-62
2022/01/13 07:15:45;;;;;;;134.82;44.05;;;;;;;0.42;57.63;103434.81;5020769;28;20072;-69
2022/01/13 07:18:12;;;;;;;128.73;46.50;;;;;;;0.40;57.70;103442.50;5014184;28;20041;-63
2022/01/13 07:20:42;;;;;;;112.95;36.97;;;;;;;0.44;57.46;103443.47;5014291;28;20046;-75
2022/01/13 07:23:10;;;;;;;97.57;32.08;;;;;;;0.48;57.39;103428.13;5018351;28;20041;-70
2022/01/13 07:25:38;;;;;;;106.07;35.25;;;;;;;0.57;57.01;103431.78;5015610;28;20296;-66
2022/01/13 07:28:05;;;;;;;81.35;29.58;;;;;;;0.74;56.71;103440.91;5025039;28;20520;-64
2022/01/13 07:30:44;;;;;;;99.80;32.20;;;;;;;0.92;56.05;103437.09;5024248;28;20054;-65
2022/01/13 07:33:16;;;;;;;65.93;25.00;;;;;;;0.98;56.17;103442.44;5026920;28;20133;-62
2022/01/13 07:35:43;;;;;;;44.85;18.67;;;;;;;1.13;55.63;103452.28;5029811;28;20045;-65
2022/01/13 07:38:09;;;;;;;60.08;24.13;;;;;;;1.26;55.32;103458.69;5031251;28;20046;-65
2022/01/13 07:40:36;;;;;;;52.88;19.88;;;;;;;1.34;55.04;103457.16;5029073;28;20288;-63
2022/01/13 07:43:03;;;;;;;52.35;22.02;;;;;;;1.38;55.11;103456.38;5021125;28;20049;-71
2022/01/13 07:45:30;;;;;;;46.33;18.45;;;;;;;1.36;54.95;103459.78;5031046;28;20049;-63
2022/01/13 07:47:57;;;;;;;50.78;19.33;;;;;;;2.29;54.36;103458.53;5028640;28;20060;-63
2022/01/13 07:50:31;;;;;;;52.78;23.27;;;;;;;2.56;52.69;103462.56;5029487;28;20053;-63
2022/01/13 07:52:58;;;;;;;67.03;26.02;;;;;;;2.19;53.51;103466.97;5030323;28;20513;-69
2022/01/13 07:55:25;;;;;;;54.33;23.42;;;;;;;2.01;53.75;103469.16;5030817;28;20056;-64
2022/01/13 07:57:51;;;;;;;52.00;22.95;;;;;;;1.87;54.29;103461.91;5030554;28;20413;-77
2022/01/13 08:00:18;;;;;;;67.05;25.33;;;;;;;1.85;54.31;103458.41;5030884;28;20394;-66
2022/01/13 08:02:45;;;;;;;62.33;26.38;;;;;;;1.87;54.31;103471.41;5023301;28;20100;-67
2022/01/13 08:05:12;;;;;;;33.17;17.48;;;;;;;1.89;54.30;103468.03;5030290;28;20053;-69
2022/01/13 08:08:13;;;;;;;26.65;13.00;;;;;;;1.94;54.08;103470.69;4998563;28;20060;-65
2022/01/13 08:10:40;;;;;;;25.23;13.02;;;;;;;2.00;53.88;103470.84;5030383;28;20088;-65
2022/01/13 08:13:10;;;;;;;22.50;11.80;;;;;;;2.06;53.99;103473.56;5029961;28;20045;-65
2022/01/13 08:15:36;;;;;;;23.60;13.30;;;;;;;2.09;53.53;103483.13;5030597;28;20132;-65
2022/01/13 08:20:48;;;;;;;16.92;10.55;;;;;;;2.41;53.04;103498.53;5024057;28;20052;-67
2022/01/13 08:23:27;;;;;;;23.00;10.20;;;;;;;2.57;52.59;103495.44;5029437;28;20115;-65
2022/01/13 08:25:54;;;;;;;21.05;11.00;;;;;;;2.82;52.14;103502.84;5029136;28;20501;-65
2022/01/13 08:28:21;;;;;;;27.95;11.77;;;;;;;3.13;51.46;103501.75;5030930;28;20056;-66
2022/01/13 08:30:48;;;;;;;21.40;11.98;;;;;;;3.46;51.07;103513.59;5030188;28;20053;-65
2022/01/13 08:33:15;;;;;;;26.63;13.13;;;;;;;3.74;50.46;103508.88;5029658;28;20183;-64
2022/01/13 08:35:43;;;;;;;26.45;14.80;;;;;;;4.08;50.02;103507.69;5030124;28;20088;-64
2022/01/13 08:38:16;;;;;;;29.75;15.07;;;;;;;4.39;49.39;103504.66;5029957;28;20077;-64
2022/01/13 08:40:45;;;;;;;35.20;20.52;;;;;;;4.64;48.79;103503.28;5029756;28;20049;-66
2022/01/13 08:43:11;;;;;;;34.25;19.85;;;;;;;4.92;48.25;103503.63;5030024;28;20538;-67
2022/01/13 08:45:38;;;;;;;38.80;19.60;;;;;;;5.14;48.12;103509.06;5029010;28;20091;-67
2022/01/13 08:48:05;;;;;;;33.95;17.80;;;;;;;5.32;47.57;103514.47;5024293;28;20238;-65
2022/01/13 08:50:32;;;;;;;26.48;16.33;;;;;;;5.49;47.52;103516.38;5029625;28;20045;-63
2022/01/13 08:52:59;;;;;;;28.77;15.45;;;;;;;5.63;47.27;103519.97;5030174;28;20045;-67
2022/01/13 08:55:26;;;;;;;27.38;15.50;;;;;;;5.83;46.97;103514.09;5027538;28;20734;-64
2022/01/13 08:57:53;;;;;;;27.83;15.32;;;;;;;6.03;46.94;103514.25;5030071;28;20050;-67
2022/01/13 09:00:19;;;;;;;31.27;17.05;;;;;;;6.19;46.64;103510.88;5029283;28;20413;-64
2022/01/13 09:02:47;;;;;;;26.95;15.77;;;;;;;6.34;46.66;103512.72;5029589;28;20048;-66
2022/01/13 09:05:17;;;;;;;29.90;18.10;;;;;;;6.50;46.31;103511.06;5029084;28;20060;-65
2022/01/13 09:07:43;;;;;;;47.63;30.27;;;;;;;6.66;46.35;103512.00;5029331;28;20095;-66
2022/01/13 09:10:12;;;;;;;305.42;148.93;;;;;;;6.84;46.15;103508.63;5029017;28;20057;-64
2022/01/13 09:12:39;;;;;;;63.97;37.00;;;;;;;6.95;46.00;103497.34;5029786;28;20053;-64
2022/01/13 09:15:29;;;;;;;37.03;21.75;;;;;;;7.13;46.10;103497.38;5028702;28;20050;-64
2022/01/13 09:17:59;;;;;;;75.78;47.13;;;;;;;7.31;45.78;103498.28;5029236;28;20060;-65
2022/01/13 09:20:25;;;;;;;194.63;87.80;;;;;;;7.46;45.62;103498.31;5028705;28;20045;-65
2022/01/13 09:22:55;;;;;;;367.63;173.32;;;;;;;7.49;45.94;103495.72;5029177;28;20552;-68
2022/01/13 09:25:35;;;;;;;120.82;60.53;;;;;;;7.75;45.64;103499.22;5016935;28;20509;-71
2022/01/13 09:28:04;;;;;;;68.50;37.63;;;;;;;7.90;45.20;103498.31;5029304;28;20057;-68
2022/01/13 09:30:31;;;;;;;173.48;83.97;;;;;;;8.08;44.80;103498.28;5029248;28;20061;-68
2022/01/13 09:32:58;;;;;;;430.25;214.98;;;;;;;8.24;44.89;103495.63;5029312;28;20052;-69
2022/01/13 09:35:24;;;;;;;169.60;83.68;;;;;;;8.40;44.75;103493.88;5028294;28;20049;-68
2022/01/13 09:37:51;;;;;;;285.65;136.82;;;;;;;8.55;44.65;103499.06;5028307;28;20085;-68
2022/01/13 09:40:18;;;;;;;154.20;80.28;;;;;;;8.71;44.28;103499.91;5028360;28;20044;-69
2022/01/13 09:42:45;;;;;;;102.90;57.25;;;;;;;8.83;44.16;103498.97;5028976;28;20044;-68
2022/01/13 09:45:15;;;;;;;48.83;30.08;;;;;;;8.94;43.69;103507.63;5028422;28;20049;-68
2022/01/13 09:47:43;;;;;;;40.08;25.23;;;;;;;9.06;43.49;103511.94;5016843;28;20060;-68
2022/01/13 09:50:15;;;;;;;44.05;26.70;;;;;;;9.20;42.87;103513.63;5023124;28;20045;-68
2022/01/13 09:52:44;;;;;;;42.83;27.42;;;;;;;9.35;42.71;103508.28;5029133;28;20048;-69
2022/01/13 09:55:12;;;;;;;168.88;92.25;;;;;;;9.46;42.38;103509.06;5028869;28;20076;-67
2022/01/13 09:57:46;;;;;;;169.93;95.63;;;;;;;9.56;42.22;103509.88;5026341;28;20095;-68
2022/01/13 10:00:16;;;;;;;91.80;53.00;;;;;;;9.71;41.98;103508.00;5028330;28;20049;-67
2022/01/13 10:02:43;;;;;;;71.85;41.65;;;;;;;9.84;41.69;103503.50;5026655;28;20516;-67
2022/01/13 10:05:11;;;;;;;59.35;31.70;;;;;;;9.95;41.43;103505.16;5026194;28;20057;-67
2022/01/13 10:07:42;;;;;;;41.28;24.50;;;;;;;10.08;41.12;103499.78;5024585;28;20049;-69
2022/01/13 10:10:24;;;;;;;44.10;29.08;;;;;;;10.23;40.89;103506.63;5027982;28;20076;-67
2022/01/13 10:13:01;;;;;;;51.75;33.15;;;;;;;10.35;40.63;103503.88;5028958;28;20067;-74
2022/01/13 10:18:46;;;;;;;32.85;20.63;;;;;;;10.60;40.04;103499.25;5013581;28;20154;-67
2022/01/13 10:21:34;;;;;;;39.83;25.17;;;;;;;10.72;39.75;103498.22;5018181;28;20041;-67
2022/01/13 10:24:06;;;;;;;34.35;21.63;;;;;;;10.83;39.54;103495.47;5024055;28;20049;-67
2022/01/13 10:26:34;;;;;;;33.00;20.63;;;;;;;10.95;39.14;103491.78;5028538;28;20136;-68
2022/01/13 10:29:03;;;;;;;37.05;23.55;;;;;;;11.05;38.87;103479.41;5022498;28;20049;-67
2022/01/13 10:31:52;;;;;;;32.67;21.42;;;;;;;11.13;38.75;103481.91;5027309;28;20075;-67
2022/01/13 10:34:26;;;;;;;43.90;25.23;;;;;;;11.24;38.53;103482.63;5019107;28;20456;-67
2022/01/13 10:37:11;;;;;;;26.42;18.05;;;;;;;11.35;38.18;103475.44;5025435;28;20049;-70
2022/01/13 10:39:52;;;;;;;58.17;31.50;;;;;;;11.40;38.07;103477.97;5027560;28;20050;-67
2022/01/13 10:45:09;;;;;;;66.03;35.65;;;;;;;11.48;37.43;103486.63;5020549;28;20053;-67
2022/01/13 10:47:39;;;;;;;75.68;48.13;;;;;;;11.54;37.15;103480.38;5027161;28;20565;-69
2022/01/13 10:50:12;;;;;;;39.85;25.35;;;;;;;11.54;36.72;103473.38;5027225;28;20052;-69
2022/01/13 10:52:39;;;;;;;65.82;47.05;;;;;;;11.62;36.61;103470.63;5025390;28;20049;-67
2022/01/13 10:55:08;;;;;;;25.95;17.75;;;;;;;11.68;36.33;103464.38;5018370;28;20505;-67
2022/01/13 10:57:49;;;;;;;29.10;17.58;;;;;;;11.75;35.80;103461.59;5027026;28;20049;-68
2022/01/13 11:00:16;;;;;;;31.45;19.55;;;;;;;11.65;35.96;103451.28;5026265;28;20045;-69
2022/01/13 11:03:12;;;;;;;35.15;19.48;;;;;;;11.75;35.39;103452.84;5027245;28;20487;-68
2022/01/13 11:05:44;;;;;;;25.35;15.48;;;;;;;11.73;35.31;103452.88;5026283;28;20096;-67
2022/01/13 11:08:11;;;;;;;21.40;13.57;;;;;;;11.64;35.46;103454.81;5017452;28;20037;-67
2022/01/13 11:10:50;;;;;;;51.80;31.85;;;;;;;11.56;35.29;103447.91;5013168;28;20061;-68
2022/01/13 11:13:22;;;;;;;20.80;13.13;;;;;;;11.48;35.34;103444.53;5026522;28;20046;-74
2022/01/13 11:15:55;;;;;;;28.63;20.77;;;;;;;11.35;35.05;103433.38;5024244;28;20056;-68
2022/01/13 11:18:31;;;;;;;42.50;30.05;;;;;;;11.15;35.39;103432.81;5021107;28;20046;-68
2022/01/13 11:21:02;;;;;;;23.13;16.45;;;;;;;11.02;35.56;103430.38;5023161;28;20049;-68
2022/01/13 11:23:31;;;;;;;73.47;52.55;;;;;;;10.96;35.45;103427.84;5022922;28;20049;-67
2022/01/13 11:25:58;;;;;;;25.55;17.60;;;;;;;10.92;35.55;103420.91;5027534;28;20395;-66
2022/01/13 11:28:24;;;;;;;24.75;15.60;;;;;;;10.60;36.29;103433.59;5018096;28;20069;-71
2022/01/13 11:30:52;;;;;;;23.98;15.45;;;;;;;10.43;36.45;103432.94;5026225;28;20054;-67
2022/01/13 11:33:20;;;;;;;140.50;77.25;;;;;;;10.33;36.64;103429.53;5027006;28;20512;-72
2022/01/13 11:35:55;;;;;;;24.83;16.08;;;;;;;10.28;36.82;103426.09;5018211;28;20123;-66
2022/01/13 11:38:24;;;;;;;26.00;17.35;;;;;;;10.20;36.74;103422.72;5026684;28;20046;-69
2022/01/13 11:41:00;;;;;;;20.58;13.77;;;;;;;10.20;36.47;103436.69;5025422;28;20049;-68
2022/01/13 11:43:40;;;;;;;21.67;14.25;;;;;;;10.16;36.45;103432.38;5026376;28;20489;-71
2022/01/13 11:46:35;;;;;;;28.73;18.05;;;;;;;10.15;36.42;103421.91;5026345;28;20491;-66
2022/01/13 11:49:03;;;;;;;42.55;25.05;;;;;;;10.17;36.46;103422.72;5026915;28;20049;-70
2022/01/13 11:52:01;;;;;;;23.42;14.95;;;;;;;10.19;36.53;103421.81;5026655;28;20544;-67
2022/01/13 11:54:34;;;;;;;20.55;14.00;;;;;;;10.19;36.57;103427.06;5017345;28;20121;-67
2022/01/13 11:57:23;;;;;;;20.75;13.65;;;;;;;10.20;36.65;103430.59;5026837;28;20076;-66